首页
METAR-TAF:

METAR-TAF

机场 :

Borden, 安大略省, 加拿大

纬度: 44-15N, 经度: 079-55W, 海拔: 223米

当前天气观测

该预报发布于39分钟前的21:00 UTC
风速5节,风向,在西北北转东北之间变化
温度 24°C
湿度 47%
气压 1007 hPa
能見度: 14.5公里
少量云层高于7900英尺

METAR: CYBN 192100Z AUTO 35005KT 320V030 9SM FEW079 24/12 A2973 RMK SLP069

时间: 17:39 (21:39 UTC)

预报

该预报发布于4小时和9分钟前的17:30 UTC
预报有效从19日的 18点(UTC)到 20日的 06点(UTC)
风速3节,风向多变
能見度: 10公里
少量云层高于4000英尺
多云层高于7000英尺
阴天层高于15000英尺
短暂存在
从 19日的 18点(UTC)到 19日的 20点(UTC)
能見度: 10公里
小阵雨
从 20日的 0000点(UTC)
风速3节,风向多变
能見度: 10公里
散云层高于3000英尺
阴天层高于6000英尺
短暂存在
从 20日的 04点(UTC)到 20日的 06点(UTC)
能見度: 10公里
小阵雨

TAF: CYBN 191730Z 1918/2006 VRB03KT P6SM FEW040 BKN070 OVC150 TEMPO 1918/1920 P6SM -SHRA FM200000 VRB03KT P6SM SCT030 OVC060 TEMPO 2004/2006 P6SM -SHRA RMK FCST BASED ON AUTO OBS. NXT FCST BY 200000Z

超过4000个机场的气象观测和天气预报(METAR&TAF报告)。

可查询的气象台以黄色和红色小点在地图上表示。

将鼠标移到小点上方,可查看气象台名称。

然后点击查看天气观测和预报。

如需切换地图:点击带黑十字的绿色按钮放大地图;点击带横线的绿色按钮缩小地图;或者点击绿色箭头查看邻近地区的地图。


METAR-TAF: